createdAt,value
2023-02-19T00:01:09.087Z,54
2023-02-19T00:03:41.592Z,49
2023-02-19T00:06:14.504Z,50
2023-02-19T00:08:51.369Z,49
2023-02-19T00:11:29.396Z,51
2023-02-19T00:14:02.568Z,49
2023-02-19T00:16:39.315Z,49
2023-02-19T00:19:16.722Z,44
2023-02-19T00:21:50.588Z,47
2023-02-19T00:24:23.409Z,44
2023-02-19T00:26:56.239Z,47
2023-02-19T00:29:34.142Z,44
2023-02-19T00:32:07.561Z,45
2023-02-19T00:34:40.285Z,47
2023-02-19T00:37:19.114Z,48
2023-02-19T00:39:52.535Z,43
2023-02-19T00:42:25.316Z,48
2023-02-19T00:45:02.153Z,44
2023-02-19T00:47:35.401Z,44
2023-02-19T00:50:12.226Z,44
2023-02-19T00:52:44.962Z,48
2023-02-19T00:55:19.080Z,44
2023-02-19T00:57:51.919Z,43
2023-02-19T01:00:28.731Z,45
2023-02-19T01:03:06.126Z,42
2023-02-19T01:05:39.113Z,43
2023-02-19T01:08:16.834Z,40
2023-02-19T01:10:54.119Z,44
2023-02-19T01:13:27.132Z,42
2023-02-19T01:16:03.876Z,42
2023-02-19T01:18:37.289Z,40
2023-02-19T01:21:14.848Z,40
2023-02-19T01:23:48.089Z,40
2023-02-19T01:26:24.903Z,36
2023-02-19T01:28:58.082Z,40
2023-02-19T01:31:39.996Z,40
2023-02-19T01:34:13.959Z,36
2023-02-19T01:36:46.726Z,40
2023-02-19T01:39:19.512Z,36
2023-02-19T01:41:52.738Z,40
2023-02-19T01:44:25.612Z,36
2023-02-19T01:46:58.351Z,36
2023-02-19T01:49:31.174Z,36
2023-02-19T01:52:07.044Z,37
2023-02-19T01:54:44.271Z,36
2023-02-19T01:57:17.413Z,37
2023-02-19T01:59:50.328Z,37
2023-02-19T02:02:27.191Z,36
2023-02-19T02:05:03.963Z,39
2023-02-19T02:07:41.053Z,36
2023-02-19T02:10:14.565Z,36
2023-02-19T02:12:46.964Z,36
2023-02-19T02:15:19.886Z,36
2023-02-19T02:17:57.174Z,40
2023-02-19T02:20:34.015Z,40
2023-02-19T02:23:11.328Z,40
2023-02-19T02:25:44.085Z,42
2023-02-19T02:28:20.835Z,40
2023-02-19T02:30:58.367Z,40
2023-02-19T02:33:31.246Z,40
2023-02-19T02:36:03.946Z,40
2023-02-19T02:38:40.761Z,40
2023-02-19T02:41:16.923Z,36
2023-02-19T02:43:53.754Z,40
2023-02-19T02:46:31.188Z,36
2023-02-19T02:49:03.968Z,40
2023-02-19T02:51:36.710Z,36
2023-02-19T02:54:14.101Z,36
2023-02-19T02:56:47.910Z,36
2023-02-19T02:59:25.004Z,32
2023-02-19T03:02:01.885Z,33
2023-02-19T03:04:38.825Z,36
2023-02-19T03:07:12.010Z,32
2023-02-19T03:09:44.654Z,35
2023-02-19T03:12:17.710Z,32
2023-02-19T03:14:55.015Z,32
2023-02-19T03:17:27.893Z,31
2023-02-19T03:20:04.869Z,32
2023-02-19T03:22:37.653Z,34
2023-02-19T03:25:14.549Z,29
2023-02-19T03:27:51.447Z,32
2023-02-19T03:30:24.374Z,30
2023-02-19T03:32:58.282Z,28
2023-02-19T03:35:31.152Z,32
2023-02-19T03:38:04.157Z,29
2023-02-19T03:40:41.009Z,28
2023-02-19T03:43:15.020Z,32
2023-02-19T03:45:48.373Z,28
2023-02-19T03:48:22.180Z,28
2023-02-19T03:50:59.466Z,31
2023-02-19T03:53:32.903Z,29
2023-02-19T03:56:09.802Z,28
2023-02-19T03:58:43.200Z,28
2023-02-19T04:01:16.110Z,32
2023-02-19T04:03:48.923Z,31
2023-02-19T04:06:21.839Z,32
2023-02-19T04:08:58.768Z,32
2023-02-19T04:11:31.640Z,32
2023-02-19T04:14:04.563Z,32
2023-02-19T04:16:37.491Z,32
2023-02-19T04:19:10.416Z,32
2023-02-19T04:21:43.233Z,32
2023-02-19T04:24:20.248Z,28
2023-02-19T04:26:52.995Z,32
2023-02-19T04:29:25.855Z,32
2023-02-19T04:31:59.184Z,32
2023-02-19T04:34:32.111Z,32
2023-02-19T04:37:04.914Z,28
2023-02-19T04:39:37.786Z,32
2023-02-19T04:42:10.751Z,32
2023-02-19T04:44:47.584Z,32
2023-02-19T04:47:24.658Z,32
2023-02-19T04:49:57.628Z,28
2023-02-19T04:52:30.551Z,31
2023-02-19T04:55:07.379Z,31
2023-02-19T04:57:40.361Z,28
2023-02-19T05:00:13.225Z,32
2023-02-19T05:02:47.099Z,32
2023-02-19T05:05:24.066Z,29
2023-02-19T05:07:57.012Z,28
2023-02-19T05:10:29.900Z,32
2023-02-19T05:13:02.863Z,29
2023-02-19T05:15:35.735Z,28
2023-02-19T05:18:08.731Z,28
2023-02-19T05:20:41.923Z,28
2023-02-19T05:23:14.386Z,32
2023-02-19T05:25:47.376Z,32
2023-02-19T05:28:24.271Z,29
2023-02-19T05:30:57.688Z,28
2023-02-19T05:33:30.534Z,28
2023-02-19T05:36:03.336Z,26
2023-02-19T05:38:36.300Z,28
2023-02-19T05:41:09.444Z,28
2023-02-19T05:43:42.110Z,28
2023-02-19T05:46:14.996Z,28
2023-02-19T05:48:51.928Z,28
2023-02-19T05:51:24.792Z,30
2023-02-19T05:53:57.794Z,28
2023-02-19T05:56:30.649Z,31
2023-02-19T05:59:07.610Z,32
2023-02-19T06:01:40.588Z,32
2023-02-19T06:04:13.521Z,34
2023-02-19T06:06:50.466Z,36
2023-02-19T06:09:23.346Z,32
2023-02-19T06:11:56.237Z,36
2023-02-19T06:14:29.319Z,36
2023-02-19T06:17:02.146Z,40
2023-02-19T06:19:35.116Z,40
2023-02-19T06:22:11.949Z,36
2023-02-19T06:24:44.946Z,40
2023-02-19T06:27:17.878Z,38
2023-02-19T06:29:50.726Z,36
2023-02-19T06:32:23.760Z,36
2023-02-19T06:34:56.611Z,36
2023-02-19T06:37:29.925Z,36
2023-02-19T06:40:03.218Z,36
2023-02-19T06:42:36.129Z,37
2023-02-19T06:45:17.508Z,40
2023-02-19T06:47:50.460Z,40
2023-02-19T06:50:23.264Z,44
2023-02-19T06:53:00.267Z,40
2023-02-19T06:55:33.209Z,42
2023-02-19T06:58:04.187Z,36
2023-02-19T07:00:36.984Z,45
2023-02-19T07:03:09.897Z,54
2023-02-19T07:05:42.791Z,53
2023-02-19T07:08:15.776Z,52
2023-02-19T07:10:48.476Z,44
2023-02-19T07:13:21.452Z,40
2023-02-19T07:15:54.395Z,40
2023-02-19T07:18:27.242Z,40
2023-02-19T07:21:00.401Z,36
2023-02-19T07:23:36.816Z,36
2023-02-19T07:26:14.447Z,36
2023-02-19T07:28:47.295Z,32
2023-02-19T07:31:20.258Z,28
2023-02-19T07:33:57.130Z,28
2023-02-19T07:36:30.055Z,25
2023-02-19T07:39:02.953Z,28
2023-02-19T07:41:35.805Z,28
2023-02-19T07:44:08.750Z,24
2023-02-19T07:46:41.668Z,24
2023-02-19T07:49:18.464Z,24
2023-02-19T07:51:51.526Z,24
2023-02-19T07:54:24.438Z,24
2023-02-19T07:56:57.375Z,24
2023-02-19T07:59:34.426Z,23
2023-02-19T08:02:07.407Z,24
2023-02-19T08:04:39.946Z,24
2023-02-19T08:07:16.876Z,24
2023-02-19T08:09:53.904Z,24
2023-02-19T08:12:26.968Z,24
2023-02-19T08:14:59.924Z,24
2023-02-19T08:17:36.899Z,21
2023-02-19T08:20:09.752Z,24
2023-02-19T08:22:42.620Z,24
2023-02-19T08:25:16.027Z,24
2023-02-19T08:27:52.393Z,24
2023-02-19T08:30:26.192Z,24
2023-02-19T08:33:00.181Z,24
2023-02-19T08:35:32.281Z,24
2023-02-19T08:38:10.148Z,24
2023-02-19T08:40:43.291Z,24
2023-02-19T08:43:16.976Z,24
2023-02-19T08:45:49.042Z,24
2023-02-19T08:48:22.694Z,24
2023-02-19T08:50:54.761Z,24
2023-02-19T08:53:33.636Z,24
2023-02-19T08:56:10.878Z,24
2023-02-19T08:58:46.320Z,24
2023-02-19T09:01:19.169Z,24
2023-02-19T09:03:56.835Z,24
2023-02-19T09:06:30.677Z,24
2023-02-19T09:09:03.898Z,20
2023-02-19T09:11:37.393Z,24
2023-02-19T09:14:10.568Z,28
2023-02-19T09:16:44.914Z,24
2023-02-19T09:19:18.229Z,24
2023-02-19T09:21:51.442Z,24
2023-02-19T09:24:29.434Z,24
2023-02-19T09:27:03.286Z,28
2023-02-19T09:29:36.600Z,24
2023-02-19T09:32:14.714Z,28
2023-02-19T09:34:47.517Z,24
2023-02-19T09:37:21.086Z,26
2023-02-19T09:39:55.105Z,28
2023-02-19T09:42:30.572Z,28
2023-02-19T09:45:07.372Z,28
2023-02-19T09:47:41.021Z,28
2023-02-19T09:50:13.932Z,28
2023-02-19T09:52:46.912Z,28
2023-02-19T09:55:20.946Z,28
2023-02-19T09:57:58.688Z,28
2023-02-19T10:00:32.029Z,28
2023-02-19T10:03:04.903Z,28
2023-02-19T10:05:43.728Z,28
2023-02-19T10:08:16.600Z,32
2023-02-19T10:10:50.690Z,28
2023-02-19T10:13:27.921Z,28
2023-02-19T10:16:00.871Z,25
2023-02-19T10:18:38.532Z,25
2023-02-19T10:21:12.857Z,28
2023-02-19T10:23:45.492Z,24
2023-02-19T10:26:19.646Z,20
2023-02-19T10:28:52.317Z,24
2023-02-19T10:31:29.663Z,24
2023-02-19T10:34:03.341Z,21
2023-02-19T10:36:37.286Z,24
2023-02-19T10:39:10.722Z,24
2023-02-19T10:41:48.112Z,24
2023-02-19T10:44:26.175Z,20
2023-02-19T10:47:02.269Z,24
2023-02-19T10:49:36.316Z,24
2023-02-19T10:52:09.641Z,24
2023-02-19T10:54:42.326Z,24
2023-02-19T10:57:15.075Z,21
2023-02-19T10:59:52.973Z,24
2023-02-19T11:02:29.098Z,20
2023-02-19T11:05:02.838Z,20
2023-02-19T11:07:36.664Z,24
2023-02-19T11:10:08.995Z,24
2023-02-19T11:12:42.920Z,20
2023-02-19T11:15:20.000Z,20
2023-02-19T11:17:52.859Z,24
2023-02-19T11:20:26.569Z,21
2023-02-19T11:23:02.727Z,20
2023-02-19T11:25:41.845Z,24
2023-02-19T11:28:13.809Z,20
2023-02-19T11:30:52.644Z,20
2023-02-19T11:33:26.067Z,20
2023-02-19T11:36:00.798Z,20
2023-02-19T11:38:38.057Z,24
2023-02-19T11:41:11.578Z,20
2023-02-19T11:43:48.748Z,20
2023-02-19T11:46:21.646Z,19
2023-02-19T11:48:54.671Z,16
2023-02-19T11:51:27.649Z,18
2023-02-19T11:54:01.333Z,16
2023-02-19T11:56:38.685Z,20
2023-02-19T11:59:11.649Z,21
2023-02-19T12:01:44.553Z,24
2023-02-19T12:04:17.563Z,20
2023-02-19T12:06:50.276Z,16
2023-02-19T12:09:23.068Z,20
2023-02-19T12:12:00.008Z,16
2023-02-19T12:14:33.978Z,16
2023-02-19T12:17:11.836Z,16
2023-02-19T12:19:49.748Z,20
2023-02-19T12:22:26.064Z,16
2023-02-19T12:25:04.072Z,16
2023-02-19T12:27:37.967Z,12
2023-02-19T12:30:11.960Z,16
2023-02-19T12:32:46.067Z,19
2023-02-19T12:35:19.741Z,16
2023-02-19T12:37:57.668Z,16
2023-02-19T12:40:34.982Z,18
2023-02-19T12:43:08.730Z,16
2023-02-19T12:45:42.129Z,16
2023-02-19T12:48:15.587Z,12
2023-02-19T12:50:48.578Z,16
2023-02-19T12:53:26.205Z,20
2023-02-19T12:56:00.355Z,14
2023-02-19T12:58:34.328Z,12
2023-02-19T13:01:07.908Z,20
2023-02-19T13:03:41.429Z,16
2023-02-19T13:06:15.112Z,17
2023-02-19T13:09:05.201Z,17
2023-02-19T13:11:23.926Z,16
2023-02-19T13:13:59.848Z,16
2023-02-19T13:16:34.198Z,20
2023-02-19T13:19:10.881Z,18
2023-02-19T13:21:43.793Z,16
2023-02-19T13:24:20.058Z,20
2023-02-19T13:26:57.839Z,18
2023-02-19T13:29:35.268Z,20
2023-02-19T13:32:13.038Z,18
2023-02-19T13:34:50.325Z,20
2023-02-19T13:37:24.346Z,18
2023-02-19T13:39:57.866Z,16
2023-02-19T13:42:35.246Z,20
2023-02-19T13:45:09.066Z,16
2023-02-19T13:47:47.074Z,16
2023-02-19T13:50:25.736Z,16
2023-02-19T13:52:58.563Z,20
2023-02-19T13:55:35.507Z,20
2023-02-19T13:58:09.505Z,20
2023-02-19T14:00:42.426Z,17
2023-02-19T14:03:16.134Z,19
2023-02-19T14:05:53.027Z,16
2023-02-19T14:08:26.427Z,20
2023-02-19T14:11:04.511Z,16
2023-02-19T14:13:37.115Z,20
2023-02-19T14:16:15.802Z,20
2023-02-19T14:18:49.885Z,16
2023-02-19T14:21:23.166Z,16
2023-02-19T14:24:00.143Z,19
2023-02-19T14:26:32.975Z,17
2023-02-19T14:29:10.005Z,16
2023-02-19T14:31:43.066Z,16
2023-02-19T14:34:16.602Z,16
2023-02-19T14:36:50.064Z,20
2023-02-19T14:39:27.792Z,20
2023-02-19T14:42:05.298Z,14
2023-02-19T14:44:38.309Z,16
2023-02-19T14:47:11.709Z,20
2023-02-19T14:49:48.618Z,16
2023-02-19T14:52:25.853Z,16
2023-02-19T14:55:00.804Z,16
2023-02-19T14:57:34.405Z,16
2023-02-19T15:00:13.973Z,18
2023-02-19T15:02:45.295Z,24
2023-02-19T15:05:22.611Z,24
2023-02-19T15:08:00.255Z,20
2023-02-19T15:10:37.257Z,24
2023-02-19T15:13:10.021Z,20
2023-02-19T15:15:44.987Z,23
2023-02-19T15:18:17.361Z,20
2023-02-19T15:20:55.387Z,20
2023-02-19T15:23:28.773Z,20
2023-02-19T15:26:05.253Z,20
2023-02-19T15:28:38.750Z,22
2023-02-19T15:31:16.029Z,20
2023-02-19T15:33:51.663Z,18
2023-02-19T15:36:25.359Z,25
2023-02-19T15:38:58.139Z,21
2023-02-19T15:41:35.110Z,20
2023-02-19T15:44:09.145Z,20
2023-02-19T15:46:42.509Z,24
2023-02-19T15:49:15.696Z,23
2023-02-19T15:51:53.054Z,24
2023-02-19T15:54:29.115Z,22
2023-02-19T15:57:02.699Z,20
2023-02-19T15:59:36.821Z,24
2023-02-19T16:02:08.833Z,24
2023-02-19T16:04:42.107Z,28
2023-02-19T16:07:15.757Z,32
2023-02-19T16:09:50.593Z,28
2023-02-19T16:12:24.699Z,28
2023-02-19T16:15:02.588Z,24
2023-02-19T16:17:46.336Z,28
2023-02-19T16:20:19.903Z,28
2023-02-19T16:22:56.786Z,24
2023-02-19T16:25:29.824Z,28
2023-02-19T16:28:10.866Z,24
2023-02-19T16:30:48.886Z,28
2023-02-19T16:33:30.336Z,32
2023-02-19T16:36:04.513Z,28
2023-02-19T16:38:40.099Z,28
2023-02-19T16:41:14.112Z,24
2023-02-19T16:43:48.904Z,23
2023-02-19T16:46:30.236Z,24
2023-02-19T16:49:07.189Z,24
2023-02-19T16:51:40.358Z,24
2023-02-19T16:54:13.395Z,28
2023-02-19T16:56:48.074Z,27
2023-02-19T16:59:26.135Z,24
2023-02-19T17:02:03.847Z,26
2023-02-19T17:04:41.125Z,25
2023-02-19T17:07:14.604Z,28
2023-02-19T17:09:52.275Z,28
2023-02-19T17:12:28.191Z,24
2023-02-19T17:15:06.730Z,28
2023-02-19T17:17:40.700Z,28
2023-02-19T17:20:23.274Z,28
2023-02-19T17:22:57.790Z,28
2023-02-19T17:25:34.871Z,36
2023-02-19T17:28:13.457Z,39
2023-02-19T17:30:47.756Z,40
2023-02-19T17:33:25.788Z,36
2023-02-19T17:35:59.144Z,40
2023-02-19T17:38:32.338Z,36
2023-02-19T17:41:08.814Z,36
2023-02-19T17:43:42.102Z,35
2023-02-19T17:46:15.597Z,36
2023-02-19T17:48:48.670Z,40
2023-02-19T17:51:24.903Z,38
2023-02-19T17:53:58.819Z,41
2023-02-19T17:56:40.426Z,40
2023-02-19T17:59:20.758Z,38
2023-02-19T18:01:54.963Z,36
2023-02-19T18:04:31.798Z,39
2023-02-19T18:07:08.472Z,42
2023-02-19T18:09:40.979Z,46
2023-02-19T18:12:17.641Z,40
2023-02-19T18:17:28.766Z,36
2023-02-19T18:20:02.898Z,36
2023-02-19T18:22:36.921Z,36
2023-02-19T18:25:10.750Z,32
2023-02-19T18:27:45.872Z,32
2023-02-19T18:30:18.934Z,32
2023-02-19T18:32:56.280Z,32
2023-02-19T18:35:29.961Z,32
2023-02-19T18:38:06.785Z,36
2023-02-19T18:40:43.826Z,40
2023-02-19T18:43:21.552Z,42
2023-02-19T18:45:58.926Z,36
2023-02-19T18:48:36.824Z,36
2023-02-19T18:51:13.982Z,32
2023-02-19T18:53:46.685Z,31
2023-02-19T18:56:20.973Z,32
2023-02-19T18:58:55.261Z,32
2023-02-19T19:01:31.918Z,32
2023-02-19T19:04:12.731Z,32
2023-02-19T19:06:45.894Z,32
2023-02-19T19:09:18.648Z,32
2023-02-19T19:11:52.909Z,35
2023-02-19T19:14:29.851Z,36
2023-02-19T19:17:02.643Z,36
2023-02-19T19:19:36.388Z,36
2023-02-19T19:22:12.178Z,32
2023-02-19T19:24:44.346Z,32
2023-02-19T19:27:17.865Z,32
2023-02-19T19:29:50.552Z,32
2023-02-19T19:32:24.245Z,32
2023-02-19T19:34:58.190Z,36
2023-02-19T19:37:34.990Z,32
2023-02-19T19:40:13.062Z,32
2023-02-19T19:42:47.845Z,32
2023-02-19T19:45:20.364Z,32
2023-02-19T19:47:57.201Z,32
2023-02-19T19:50:30.897Z,35
2023-02-19T19:53:04.014Z,32
2023-02-19T19:55:38.222Z,30
2023-02-19T19:58:11.058Z,29
2023-02-19T20:00:43.953Z,32
2023-02-19T20:03:21.579Z,28
2023-02-19T20:05:54.988Z,32
2023-02-19T20:08:28.800Z,32
2023-02-19T20:11:05.925Z,28
2023-02-19T20:13:38.702Z,28
2023-02-19T20:16:11.818Z,30
2023-02-19T20:18:48.422Z,32
2023-02-19T20:21:23.807Z,32
2023-02-19T20:23:57.771Z,32
2023-02-19T20:26:34.354Z,32
2023-02-19T20:29:09.207Z,28
2023-02-19T20:31:42.822Z,32
2023-02-19T20:34:19.466Z,28
2023-02-19T20:36:54.625Z,29
2023-02-19T20:39:31.547Z,31
2023-02-19T20:42:07.422Z,28
2023-02-19T20:44:43.691Z,31
2023-02-19T20:47:18.681Z,32
2023-02-19T20:49:51.674Z,28
2023-02-19T20:52:32.361Z,32
2023-02-19T20:55:12.511Z,29
2023-02-19T20:57:52.014Z,28
2023-02-19T21:00:24.783Z,32
2023-02-19T21:02:58.853Z,32
2023-02-19T21:05:32.619Z,28
2023-02-19T21:08:09.754Z,28
2023-02-19T21:10:47.617Z,28
2023-02-19T21:13:24.913Z,28
2023-02-19T21:16:01.802Z,28
2023-02-19T21:18:39.010Z,28
2023-02-19T21:21:18.842Z,28
2023-02-19T21:23:55.922Z,24
2023-02-19T21:26:33.931Z,28
2023-02-19T21:29:07.080Z,24
2023-02-19T21:31:41.800Z,24
2023-02-19T21:34:15.309Z,16
2023-02-19T21:36:47.640Z,20
2023-02-19T21:39:21.664Z,12
2023-02-19T21:41:55.304Z,12
2023-02-19T21:44:34.998Z,8
2023-02-19T21:47:08.923Z,4
2023-02-19T21:49:45.548Z,6
2023-02-19T21:52:18.452Z,8
2023-02-19T21:54:51.402Z,4
2023-02-19T21:57:24.754Z,4
2023-02-19T21:59:57.684Z,0
2023-02-19T22:02:28.742Z,4
2023-02-19T22:05:01.242Z,4
2023-02-19T22:07:35.098Z,8
2023-02-19T22:10:08.948Z,4
2023-02-19T22:12:42.927Z,8
2023-02-19T22:15:17.860Z,4
2023-02-19T22:17:51.135Z,4
2023-02-19T22:20:27.273Z,8
2023-02-19T22:23:00.023Z,6
2023-02-19T22:25:37.672Z,4
2023-02-19T22:28:11.757Z,6
2023-02-19T22:30:50.457Z,4
2023-02-19T22:33:30.023Z,4
2023-02-19T22:36:07.561Z,12
2023-02-19T22:38:40.107Z,12
2023-02-19T22:41:16.618Z,15
2023-02-19T22:43:52.925Z,16
2023-02-19T22:46:27.032Z,12
2023-02-19T22:49:04.633Z,13
2023-02-19T22:51:37.900Z,12
2023-02-19T22:54:11.702Z,12
2023-02-19T22:56:45.392Z,12
2023-02-19T22:59:19.442Z,8
2023-02-19T23:01:57.174Z,8
2023-02-19T23:04:31.514Z,8
2023-02-19T23:07:05.106Z,8
2023-02-19T23:09:43.171Z,8
2023-02-19T23:12:15.845Z,8
2023-02-19T23:14:55.294Z,8
2023-02-19T23:17:29.280Z,8
2023-02-19T23:20:01.958Z,8
2023-02-19T23:22:36.834Z,8
2023-02-19T23:25:18.808Z,8
2023-02-19T23:27:54.756Z,12
2023-02-19T23:30:31.094Z,8
2023-02-19T23:33:07.727Z,8
2023-02-19T23:35:40.869Z,8
2023-02-19T23:38:14.406Z,8
2023-02-19T23:40:47.555Z,8
2023-02-19T23:43:24.274Z,8
2023-02-19T23:46:01.832Z,8
2023-02-19T23:48:38.349Z,8
2023-02-19T23:51:15.812Z,11
2023-02-19T23:53:50.609Z,8
2023-02-19T23:56:27.360Z,8
2023-02-19T23:59:06.901Z,8
